createdAt,value
2018-05-06T00:01:25.610Z,96036.67
2018-05-06T00:03:53.853Z,96039.09
2018-05-06T00:06:22.878Z,96042.19
2018-05-06T00:08:51.113Z,96048.52
2018-05-06T00:11:20.129Z,96042.05
2018-05-06T00:13:48.391Z,96042.08
2018-05-06T00:16:17.427Z,96037.73
2018-05-06T00:18:46.418Z,96046.91
2018-05-06T00:21:14.662Z,96041.80
2018-05-06T00:23:43.665Z,96039.92
2018-05-06T00:26:11.938Z,96044.21
2018-05-06T00:28:40.181Z,96040.98
2018-05-06T00:31:08.450Z,96046.36
2018-05-06T00:33:36.775Z,96044.36
2018-05-06T00:36:04.933Z,96044.48
2018-05-06T00:38:33.954Z,96049.06
2018-05-06T00:41:02.224Z,96052.42
2018-05-06T00:43:30.480Z,96053.36
2018-05-06T00:45:59.499Z,96049.35
2018-05-06T00:48:27.738Z,96045.56
2018-05-06T00:50:56.813Z,96052.58
2018-05-06T00:53:25.049Z,96050.95
2018-05-06T00:55:54.305Z,96053.78
2018-05-06T00:58:23.322Z,96050.95
2018-05-06T01:00:51.590Z,96055.25
2018-05-06T01:03:20.813Z,96056.86
2018-05-06T01:05:49.046Z,96051.20
2018-05-06T01:08:18.100Z,96054.43
2018-05-06T01:10:46.316Z,96052.16
2018-05-06T01:13:15.325Z,96051.75
2018-05-06T01:15:43.578Z,96056.70
2018-05-06T01:18:11.828Z,96064.90
2018-05-06T01:20:40.083Z,96056.68
2018-05-06T01:23:08.322Z,96055.09
2018-05-06T01:25:37.344Z,96059.12
2018-05-06T01:28:05.577Z,96052.12
2018-05-06T01:30:34.593Z,96054.13
2018-05-06T01:33:02.830Z,96056.30
2018-05-06T01:35:31.086Z,96053.20
2018-05-06T01:37:59.367Z,96053.86
2018-05-06T01:40:27.614Z,96049.55
2018-05-06T01:42:55.914Z,96051.86
2018-05-06T01:45:24.170Z,96053.45
2018-05-06T01:47:52.406Z,96058.04
2018-05-06T01:50:21.425Z,96055.20
2018-05-06T01:52:49.662Z,96042.98
2018-05-06T01:55:17.901Z,96042.02
2018-05-06T01:57:46.162Z,96043.78
2018-05-06T02:00:14.398Z,96047.66
2018-05-06T02:02:43.422Z,96037.71
2018-05-06T02:05:11.653Z,96042.97
2018-05-06T02:07:39.885Z,96039.62
2018-05-06T02:10:08.233Z,96039.07
2018-05-06T02:12:36.473Z,96043.64
2018-05-06T02:15:04.728Z,96045.78
2018-05-06T02:17:32.965Z,96042.30
2018-05-06T02:20:01.218Z,96046.88
2018-05-06T02:22:30.230Z,96048.19
2018-05-06T02:24:59.233Z,96042.67
2018-05-06T02:27:27.487Z,96041.62
2018-05-06T02:29:56.495Z,96043.23
2018-05-06T02:32:24.746Z,96043.47
2018-05-06T02:34:53.010Z,96041.19
2018-05-06T02:37:21.237Z,96039.31
2018-05-06T02:39:49.473Z,96038.25
2018-05-06T02:42:18.489Z,96042.53
2018-05-06T02:44:46.742Z,96044.41
2018-05-06T02:47:14.987Z,96048.30
2018-05-06T02:49:43.234Z,96043.88
2018-05-06T02:52:11.473Z,96043.89
2018-05-06T02:54:40.498Z,96038.35
2018-05-06T02:57:08.749Z,96032.17
2018-05-06T02:59:37.777Z,96027.45
2018-05-06T03:02:06.022Z,96026.39
2018-05-06T03:04:35.021Z,96019.52
2018-05-06T03:07:03.522Z,96021.52
2018-05-06T03:09:31.762Z,96012.83
2018-05-06T03:12:00.765Z,96014.27
2018-05-06T03:14:29.777Z,96009.85
2018-05-06T03:16:58.029Z,96011.72
2018-05-06T03:19:27.057Z,96009.98
2018-05-06T03:21:55.289Z,96007.16
2018-05-06T03:24:24.310Z,96011.17
2018-05-06T03:26:52.553Z,96015.47
2018-05-06T03:29:20.793Z,96017.09
2018-05-06T03:31:49.034Z,96014.80
2018-05-06T03:34:17.281Z,96021.77
2018-05-06T03:36:45.534Z,96024.99
2018-05-06T03:39:13.778Z,96021.77
2018-05-06T03:41:42.026Z,96021.64
2018-05-06T03:44:11.057Z,96024.30
2018-05-06T03:46:39.309Z,96020.83
2018-05-06T03:49:07.547Z,96018.80
2018-05-06T03:51:35.798Z,96028.20
2018-05-06T03:54:04.038Z,96029.41
2018-05-06T04:00:00.329Z,96037.46
2018-05-06T04:02:32.340Z,96037.72
2018-05-06T04:05:01.341Z,96046.31
2018-05-06T04:07:29.590Z,96038.23
2018-05-06T04:09:58.609Z,96044.00
2018-05-06T04:12:26.860Z,96044.71
2018-05-06T04:14:55.117Z,96045.84
2018-05-06T04:17:23.457Z,96051.66
2018-05-06T04:19:51.681Z,96052.33
2018-05-06T04:22:19.913Z,96050.55
2018-05-06T04:24:48.185Z,96059.83
2018-05-06T04:27:16.425Z,96055.91
2018-05-06T04:29:45.451Z,96062.38
2018-05-06T04:32:13.692Z,96068.25
2018-05-06T04:37:16.273Z,96074.97
2018-05-06T04:39:44.527Z,96072.02
2018-05-06T04:42:12.769Z,96073.83
2018-05-06T04:44:41.055Z,96072.52
2018-05-06T04:47:09.300Z,96075.61
2018-05-06T04:49:37.550Z,96076.72
2018-05-06T04:52:05.805Z,96075.47
2018-05-06T04:54:34.037Z,96078.44
2018-05-06T04:57:02.297Z,96080.59
2018-05-06T04:59:31.323Z,96085.33
2018-05-06T05:01:59.555Z,96088.41
2018-05-06T05:04:28.701Z,96084.69
2018-05-06T05:06:56.942Z,96086.06
2018-05-06T05:09:25.224Z,96082.73
2018-05-06T05:11:53.442Z,96093.37
2018-05-06T05:14:21.681Z,96085.48
2018-05-06T05:16:49.925Z,96090.16
2018-05-06T05:19:18.174Z,96094.85
2018-05-06T05:21:46.418Z,96094.55
2018-05-06T05:24:14.671Z,96099.30
2018-05-06T05:26:43.683Z,96109.60
2018-05-06T05:29:11.921Z,96110.59
2018-05-06T05:31:40.921Z,96108.05
2018-05-06T05:34:09.950Z,96113.31
2018-05-06T05:36:38.202Z,96106.00
2018-05-06T05:39:06.454Z,96106.58
2018-05-06T05:41:34.693Z,96104.95
2018-05-06T05:44:03.034Z,96107.13
2018-05-06T05:46:31.270Z,96111.97
2018-05-06T05:48:59.577Z,96108.89
2018-05-06T05:51:28.591Z,96109.27
2018-05-06T05:53:56.841Z,96106.94
2018-05-06T05:56:25.965Z,96102.77
2018-05-06T05:58:54.214Z,96105.05
2018-05-06T06:01:23.219Z,96105.32
2018-05-06T06:03:51.470Z,96113.41
2018-05-06T06:06:19.721Z,96118.64
2018-05-06T06:08:47.953Z,96114.98
2018-05-06T06:11:16.241Z,96110.12
2018-05-06T06:13:44.473Z,96111.44
2018-05-06T06:16:12.723Z,96110.53
2018-05-06T06:18:40.958Z,96113.19
2018-05-06T06:21:09.221Z,96113.98
2018-05-06T06:23:38.248Z,96113.16
2018-05-06T06:26:06.477Z,96112.27
2018-05-06T06:28:35.494Z,96107.45
2018-05-06T06:31:03.746Z,96107.17
2018-05-06T06:33:32.755Z,96103.28
2018-05-06T06:36:01.014Z,96107.31
2018-05-06T06:38:30.038Z,96111.56
2018-05-06T06:40:58.273Z,96108.27
2018-05-06T06:43:27.298Z,96102.88
2018-05-06T06:45:55.542Z,96108.63
2018-05-06T06:48:23.782Z,96105.39
2018-05-06T06:50:52.035Z,96108.30
2018-05-06T06:53:20.274Z,96103.16
2018-05-06T06:55:49.361Z,96100.49
2018-05-06T06:58:17.538Z,96099.45
2018-05-06T07:00:45.790Z,96097.41
2018-05-06T07:03:14.109Z,96092.91
2018-05-06T07:05:42.370Z,96094.06
2018-05-06T07:08:11.383Z,96100.70
2018-05-06T07:10:39.637Z,96097.05
2018-05-06T07:13:08.634Z,96099.11
2018-05-06T07:15:37.641Z,96096.80
2018-05-06T07:18:06.673Z,96101.38
2018-05-06T07:20:34.914Z,96094.61
2018-05-06T07:23:03.174Z,96106.37
2018-05-06T07:25:32.177Z,96101.74
2018-05-06T07:28:01.182Z,96117.28
2018-05-06T07:30:29.443Z,96108.69
2018-05-06T07:32:58.441Z,96104.20
2018-05-06T07:35:27.449Z,96108.29
2018-05-06T07:37:55.694Z,96101.09
2018-05-06T07:40:24.706Z,96101.22
2018-05-06T07:42:52.950Z,96107.95
2018-05-06T07:45:21.178Z,96098.52
2018-05-06T07:47:49.442Z,96105.84
2018-05-06T07:50:17.690Z,96100.85
2018-05-06T07:52:46.685Z,96103.91
2018-05-06T07:55:15.704Z,96098.64
2018-05-06T08:01:02.435Z,96103.55
2018-05-06T08:03:42.748Z,96098.16
2018-05-06T08:09:08.348Z,96102.58
2018-05-06T08:11:36.606Z,96101.56
2018-05-06T08:14:04.845Z,96097.50
2018-05-06T08:16:33.160Z,96092.31
2018-05-06T08:19:02.154Z,96091.80
2018-05-06T08:21:30.383Z,96092.48
2018-05-06T08:23:58.614Z,96094.43
2018-05-06T08:26:26.862Z,96096.70
2018-05-06T08:28:55.096Z,96092.57
2018-05-06T08:31:23.462Z,96082.64
2018-05-06T08:33:51.731Z,96078.01
2018-05-06T08:36:19.961Z,96085.84
2018-05-06T08:38:48.207Z,96090.14
2018-05-06T08:41:16.457Z,96082.36
2018-05-06T08:43:44.690Z,96088.41
2018-05-06T08:46:12.939Z,96088.81
2018-05-06T08:48:41.546Z,96087.14
2018-05-06T08:51:10.543Z,96083.83
2018-05-06T08:53:38.782Z,96090.13
2018-05-06T08:56:07.195Z,96082.20
2018-05-06T08:58:35.430Z,96084.23
2018-05-06T09:01:03.675Z,96084.05
2018-05-06T09:03:32.162Z,96082.45
2018-05-06T09:14:52.901Z,96070.42
2018-05-06T09:17:21.137Z,96065.73
2018-05-06T09:19:49.429Z,96071.11
2018-05-06T09:22:17.633Z,96073.89
2018-05-06T09:24:45.865Z,96073.38
2018-05-06T09:27:14.106Z,96080.43
2018-05-06T09:29:42.357Z,96078.34
2018-05-06T09:32:10.593Z,96071.36
2018-05-06T09:34:38.892Z,96073.57
2018-05-06T09:37:07.881Z,96079.57
2018-05-06T09:39:36.126Z,96073.41
2018-05-06T09:42:04.357Z,96066.64
2018-05-06T09:44:32.659Z,96076.27
2018-05-06T09:47:00.898Z,96073.46
2018-05-06T09:49:29.133Z,96076.75
2018-05-06T09:51:57.373Z,96074.41
2018-05-06T09:54:25.631Z,96069.38
2018-05-06T09:56:53.866Z,96061.60
2018-05-06T09:59:22.142Z,96069.84
2018-05-06T10:01:50.390Z,96065.27
2018-05-06T10:04:18.623Z,96061.03
2018-05-06T10:06:46.873Z,96068.81
2018-05-06T10:09:15.877Z,96064.91
2018-05-06T10:11:44.886Z,96062.66
2018-05-06T10:14:13.129Z,96060.00
2018-05-06T10:16:41.381Z,96060.00
2018-05-06T10:19:09.627Z,96054.13
2018-05-06T10:21:37.868Z,96061.36
2018-05-06T10:24:06.889Z,96047.87
2018-05-06T10:26:35.121Z,96039.38
2018-05-06T10:29:03.366Z,96049.09
2018-05-06T10:31:31.593Z,96044.87
2018-05-06T10:34:00.589Z,96037.98
2018-05-06T10:36:28.842Z,96036.73
2018-05-06T10:38:57.079Z,96031.31
2018-05-06T10:41:25.322Z,96027.90
2018-05-06T10:43:53.576Z,96029.73
2018-05-06T10:46:21.817Z,96025.72
2018-05-06T10:48:50.046Z,96023.48
2018-05-06T10:51:18.287Z,96028.78
2018-05-06T10:53:46.536Z,96024.41
2018-05-06T10:56:14.786Z,96022.80
2018-05-06T10:58:43.034Z,96024.30
2018-05-06T11:01:12.037Z,96023.45
2018-05-06T11:03:40.324Z,96021.34
2018-05-06T11:06:08.558Z,96025.84
2018-05-06T11:08:36.797Z,96011.77
2018-05-06T11:11:05.045Z,96017.36
2018-05-06T11:13:33.539Z,96014.94
2018-05-06T11:16:01.765Z,96003.62
2018-05-06T11:18:29.997Z,96010.82
2018-05-06T11:20:58.247Z,96009.20
2018-05-06T11:23:26.494Z,95997.06
2018-05-06T11:25:54.722Z,95998.86
2018-05-06T11:28:23.025Z,96001.81
2018-05-06T11:30:51.258Z,95997.60
2018-05-06T11:33:19.548Z,95998.98
2018-05-06T11:35:47.724Z,96005.20
2018-05-06T11:38:15.961Z,95993.49
2018-05-06T11:40:44.990Z,95995.15
2018-05-06T11:43:13.220Z,95994.16
2018-05-06T11:45:42.221Z,96010.38
2018-05-06T11:48:11.291Z,96002.27
2018-05-06T11:50:39.473Z,95995.22
2018-05-06T11:53:07.872Z,96002.00
2018-05-06T11:55:36.874Z,95996.91
2018-05-06T11:58:05.867Z,95993.83
2018-05-06T12:00:34.890Z,95992.34
2018-05-06T12:03:03.138Z,95993.27
2018-05-06T12:05:31.373Z,95984.89
2018-05-06T12:07:59.610Z,95985.66
2018-05-06T12:10:27.857Z,95985.54
2018-05-06T12:12:56.854Z,95983.27
2018-05-06T12:15:25.102Z,95985.38
2018-05-06T12:17:53.329Z,95989.58
2018-05-06T12:20:21.570Z,95984.88
2018-05-06T12:22:50.585Z,95980.31
2018-05-06T12:25:18.821Z,95976.36
2018-05-06T12:27:47.120Z,95967.14
2018-05-06T12:30:16.133Z,95973.61
2018-05-06T12:32:44.379Z,95964.67
2018-05-06T12:35:13.376Z,95965.03
2018-05-06T12:37:42.385Z,95962.19
2018-05-06T12:40:10.630Z,95965.73
2018-05-06T12:42:38.858Z,95962.11
2018-05-06T12:45:07.106Z,95962.67
2018-05-06T12:47:36.105Z,95956.34
2018-05-06T12:50:04.346Z,95960.61
2018-05-06T12:52:32.581Z,95958.33
2018-05-06T12:55:00.825Z,95959.58
2018-05-06T12:57:29.058Z,95962.28
2018-05-06T12:59:57.302Z,95966.40
2018-05-06T13:02:25.813Z,95966.65
2018-05-06T13:04:53.998Z,95951.64
2018-05-06T13:07:22.229Z,95954.25
2018-05-06T13:09:50.478Z,95939.31
2018-05-06T13:12:19.477Z,95938.71
2018-05-06T13:14:47.718Z,95931.98
2018-05-06T13:17:15.958Z,95925.44
2018-05-06T13:19:44.206Z,95922.04
2018-05-06T13:22:12.440Z,95928.77
2018-05-06T13:24:40.682Z,95917.63
2018-05-06T13:27:08.934Z,95924.13
2018-05-06T13:29:37.168Z,95915.05
2018-05-06T13:32:06.938Z,95913.33
2018-05-06T13:34:35.164Z,95918.65
2018-05-06T13:37:04.186Z,95914.44
2018-05-06T13:39:33.189Z,95908.56
2018-05-06T13:42:01.475Z,95919.87
2018-05-06T13:44:29.691Z,95921.58
2018-05-06T13:46:57.940Z,95910.94
2018-05-06T13:49:26.170Z,95916.82
2018-05-06T13:51:55.192Z,95914.69
2018-05-06T13:54:23.478Z,95913.17
2018-05-06T13:56:51.697Z,95912.14
2018-05-06T13:59:19.962Z,95910.48
2018-05-06T14:01:48.185Z,95905.55
2018-05-06T14:04:16.478Z,95907.89
2018-05-06T14:06:44.705Z,95895.47
2018-05-06T14:09:13.705Z,95906.15
2018-05-06T14:11:42.718Z,95903.02
2018-05-06T14:14:10.962Z,95902.23
2018-05-06T14:16:39.202Z,95892.42
2018-05-06T14:19:07.459Z,95887.38
2018-05-06T14:21:35.743Z,95890.88
2018-05-06T14:24:04.703Z,95894.47
2018-05-06T14:26:33.698Z,95896.02
2018-05-06T14:29:01.929Z,95888.81
2018-05-06T14:31:30.180Z,95888.30
2018-05-06T14:33:58.413Z,95891.91
2018-05-06T14:36:27.414Z,95890.89
2018-05-06T14:38:56.432Z,95889.91
2018-05-06T14:41:24.653Z,95884.72
2018-05-06T14:43:52.957Z,95894.22
2018-05-06T14:49:35.373Z,95879.25
2018-05-06T14:52:04.389Z,95886.42
2018-05-06T14:54:32.646Z,95892.25
2018-05-06T14:57:01.653Z,95883.48
2018-05-06T14:59:30.668Z,95888.67
2018-05-06T15:01:58.897Z,95882.91
2018-05-06T15:04:27.142Z,95883.83
2018-05-06T15:06:55.378Z,95888.41
2018-05-06T15:09:23.628Z,95881.27
2018-05-06T15:11:52.638Z,95881.27
2018-05-06T15:14:36.773Z,95875.61
2018-05-06T15:17:05.809Z,95883.86
2018-05-06T15:19:34.768Z,95877.59
2018-05-06T15:22:03.858Z,95872.82
2018-05-06T15:24:32.878Z,95873.81
2018-05-06T15:27:01.121Z,95877.45
2018-05-06T15:29:29.357Z,95868.88
2018-05-06T15:31:57.593Z,95866.64
2018-05-06T15:34:25.879Z,95872.63
2018-05-06T15:36:54.125Z,95867.36
2018-05-06T15:39:23.138Z,95869.34
2018-05-06T15:41:51.377Z,95861.66
2018-05-06T15:44:19.606Z,95864.86
2018-05-06T15:46:47.913Z,95873.91
2018-05-06T15:49:16.156Z,95869.28
2018-05-06T15:51:44.388Z,95867.37
2018-05-06T15:54:12.623Z,95867.86
2018-05-06T15:56:40.873Z,95866.24
2018-05-06T15:59:09.112Z,95865.84
2018-05-06T16:01:37.337Z,95854.80
2018-05-06T16:04:16.383Z,95860.65
2018-05-06T16:06:44.614Z,95858.88
2018-05-06T16:09:12.867Z,95856.81
2018-05-06T16:11:41.109Z,95856.89
2018-05-06T16:14:09.364Z,95860.08
2018-05-06T16:16:37.602Z,95855.67
2018-05-06T16:19:06.589Z,95857.18
2018-05-06T16:21:35.602Z,95858.31
2018-05-06T16:24:04.619Z,95856.70
2018-05-06T16:26:32.878Z,95850.16
2018-05-06T16:29:01.101Z,95853.45
2018-05-06T16:31:29.413Z,95850.72
2018-05-06T16:33:58.426Z,95855.94
2018-05-06T16:36:26.657Z,95852.09
2018-05-06T16:38:54.898Z,95854.17
2018-05-06T16:41:23.138Z,95850.80
2018-05-06T16:43:52.152Z,95857.41
2018-05-06T16:46:20.385Z,95844.95
2018-05-06T16:48:48.629Z,95844.59
2018-05-06T16:51:16.869Z,95847.56
2018-05-06T16:53:45.105Z,95842.11
2018-05-06T16:56:13.345Z,95843.46
2018-05-06T16:58:41.593Z,95843.75
2018-05-06T17:01:09.849Z,95848.10
2018-05-06T17:03:38.883Z,95856.47
2018-05-06T17:06:07.125Z,95848.31
2018-05-06T17:08:36.136Z,95849.63
2018-05-06T17:11:04.377Z,95852.77
2018-05-06T17:13:33.389Z,95852.85
2018-05-06T17:16:02.426Z,95852.57
2018-05-06T17:18:30.652Z,95856.67
2018-05-06T17:20:59.689Z,95854.97
2018-05-06T17:23:27.925Z,95854.24
2018-05-06T17:25:56.944Z,95854.63
2018-05-06T17:28:25.173Z,95850.52
2018-05-06T17:30:54.174Z,95853.39
2018-05-06T17:33:23.182Z,95854.70
2018-05-06T17:35:52.189Z,95859.23
2018-05-06T17:38:20.433Z,95857.34
2018-05-06T17:40:48.662Z,95860.84
2018-05-06T17:43:16.917Z,95858.80
2018-05-06T17:45:45.145Z,95858.84
2018-05-06T17:48:13.419Z,95863.80
2018-05-06T17:50:41.647Z,95867.58
2018-05-06T17:53:09.869Z,95862.81
2018-05-06T17:55:38.115Z,95867.93
2018-05-06T17:58:06.357Z,95864.95
2018-05-06T18:00:34.605Z,95863.54
2018-05-06T18:03:03.605Z,95861.55
2018-05-06T18:05:32.617Z,95870.56
2018-05-06T18:08:01.705Z,95863.59
2018-05-06T18:10:30.970Z,95869.24
2018-05-06T18:13:00.051Z,95866.70
2018-05-06T18:15:28.313Z,95865.33
2018-05-06T18:17:56.620Z,95868.75
2018-05-06T18:20:24.873Z,95867.95
2018-05-06T18:22:53.354Z,95862.89
2018-05-06T18:25:21.637Z,95862.22
2018-05-06T18:27:49.891Z,95871.09
2018-05-06T18:30:18.197Z,95865.39
2018-05-06T18:32:46.454Z,95869.20
2018-05-06T18:35:14.746Z,95874.59
2018-05-06T18:37:42.980Z,95872.05
2018-05-06T18:40:11.245Z,95873.72
2018-05-06T18:42:39.544Z,95875.16
2018-05-06T18:45:07.781Z,95878.20
2018-05-06T18:47:36.842Z,95878.06
2018-05-06T18:50:05.154Z,95876.75
2018-05-06T18:52:34.221Z,95881.91
2018-05-06T18:55:02.505Z,95885.19
2018-05-06T18:57:32.333Z,95888.61
2018-05-06T19:00:01.333Z,95889.51
2018-05-06T19:02:30.411Z,95893.11
2018-05-06T19:04:59.473Z,95891.11
2018-05-06T19:07:27.784Z,95892.41
2018-05-06T19:09:57.537Z,95894.96
2018-05-06T19:12:25.858Z,95897.38
2018-05-06T19:14:54.179Z,95903.75
2018-05-06T19:17:22.491Z,95904.00
2018-05-06T19:19:51.049Z,95902.48
2018-05-06T19:22:19.354Z,95904.24
2018-05-06T19:24:47.653Z,95900.73
2018-05-06T19:27:16.734Z,95905.92
2018-05-06T19:29:45.032Z,95909.65
2018-05-06T19:32:13.517Z,95909.45
2018-05-06T19:34:42.575Z,95906.00
2018-05-06T19:37:10.858Z,95901.97
2018-05-06T19:39:39.190Z,95900.99
2018-05-06T19:42:08.221Z,95897.48
2018-05-06T19:44:36.518Z,95899.61
2018-05-06T19:47:04.794Z,95896.97
2018-05-06T19:49:33.075Z,95903.13
2018-05-06T19:52:01.436Z,95902.00
2018-05-06T19:54:29.717Z,95903.84
2018-05-06T19:56:58.035Z,95904.23
2018-05-06T19:59:27.100Z,95898.95
2018-05-06T20:01:55.402Z,95901.12
2018-05-06T20:04:23.686Z,95904.53
2018-05-06T20:06:53.787Z,95906.92
2018-05-06T20:09:22.852Z,95907.80
2018-05-06T20:11:51.162Z,95908.73
2018-05-06T20:14:20.236Z,95907.85
2018-05-06T20:16:49.313Z,95904.09
2018-05-06T20:19:17.595Z,95910.86
2018-05-06T20:21:45.918Z,95909.13
2018-05-06T20:24:14.182Z,95910.78
2018-05-06T20:26:43.201Z,95907.52
2018-05-06T20:29:11.435Z,95911.16
2018-05-06T20:31:39.696Z,95909.92
2018-05-06T20:34:07.925Z,95911.88
2018-05-06T20:36:36.217Z,95907.79
2018-05-06T20:39:04.546Z,95910.01
2018-05-06T20:41:32.798Z,95912.38
2018-05-06T20:44:01.036Z,95911.38
2018-05-06T20:46:29.284Z,95909.99
2018-05-06T20:48:58.537Z,95914.31
2018-05-06T20:51:26.777Z,95918.86
2018-05-06T20:53:55.782Z,95917.83
2018-05-06T20:56:24.057Z,95921.39
2018-05-06T20:58:52.355Z,95920.62
2018-05-06T21:01:20.619Z,95913.13
2018-05-06T21:03:48.877Z,95926.11
2018-05-06T21:06:17.161Z,95926.98
2018-05-06T21:08:45.451Z,95922.26
2018-05-06T21:11:13.733Z,95924.70
2018-05-06T21:13:42.062Z,95926.25
2018-05-06T21:16:10.358Z,95918.68
2018-05-06T21:18:38.617Z,95919.25
2018-05-06T21:21:07.663Z,95927.27
2018-05-06T21:23:35.928Z,95922.72
2018-05-06T21:26:04.228Z,95928.96
2018-05-06T21:28:32.644Z,95931.04
2018-05-06T21:31:00.932Z,95927.00
2018-05-06T21:33:30.043Z,95927.75
2018-05-06T21:35:58.268Z,95931.84
2018-05-06T21:41:40.377Z,95928.79
2018-05-06T21:44:08.721Z,95925.43
2018-05-06T21:46:38.053Z,95928.73
2018-05-06T21:49:06.332Z,95923.17
2018-05-06T21:51:34.618Z,95924.83
2018-05-06T21:54:02.884Z,95921.50
2018-05-06T21:56:31.950Z,95925.43
2018-05-06T21:59:00.216Z,95927.61
2018-05-06T22:01:28.506Z,95922.53
2018-05-06T22:03:56.773Z,95934.02
2018-05-06T22:06:25.048Z,95924.31
2018-05-06T22:08:54.094Z,95922.48
2018-05-06T22:11:22.366Z,95919.28
2018-05-06T22:13:50.638Z,95928.44
2018-05-06T22:16:18.911Z,95924.02
2018-05-06T22:18:47.211Z,95923.48
2018-05-06T22:21:16.300Z,95930.11
2018-05-06T22:23:45.343Z,95926.36
2018-05-06T22:26:13.620Z,95934.16
2018-05-06T22:28:41.893Z,95935.51
2018-05-06T22:31:10.929Z,95935.39
2018-05-06T22:33:39.223Z,95927.34
2018-05-06T22:36:07.504Z,95926.83
2018-05-06T22:38:35.785Z,95921.20
2018-05-06T22:41:04.076Z,95919.41
2018-05-06T22:43:32.362Z,95923.49
2018-05-06T22:46:00.670Z,95921.45
2018-05-06T22:48:28.990Z,95911.80
2018-05-06T22:50:57.255Z,95915.17
2018-05-06T22:53:25.539Z,95909.91
2018-05-06T22:55:53.829Z,95904.69
2018-05-06T22:58:22.945Z,95908.08
2018-05-06T23:00:51.228Z,95907.95
2018-05-06T23:03:19.513Z,95902.54
2018-05-06T23:05:47.798Z,95904.86
2018-05-06T23:08:16.062Z,95898.41
2018-05-06T23:10:44.340Z,95895.72
2018-05-06T23:13:13.376Z,95894.62
2018-05-06T23:15:41.638Z,95894.38
2018-05-06T23:18:09.935Z,95891.82
2018-05-06T23:20:38.206Z,95892.23
2018-05-06T23:23:06.483Z,95894.55
2018-05-06T23:25:35.524Z,95886.76
2018-05-06T23:28:03.803Z,95886.06
2018-05-06T23:30:32.099Z,95881.38
2018-05-06T23:33:00.395Z,95875.34
2018-05-06T23:35:28.717Z,95877.63
2018-05-06T23:37:56.969Z,95874.40
2018-05-06T23:40:25.242Z,95871.72
2018-05-06T23:42:53.502Z,95873.34
2018-05-06T23:45:22.547Z,95871.72
2018-05-06T23:47:50.826Z,95868.77
2018-05-06T23:50:19.119Z,95863.77
2018-05-06T23:52:47.382Z,95868.65
2018-05-06T23:55:16.535Z,95863.27
2018-05-06T23:57:44.823Z,95858.30
